Time;durP1;ratioP1;P1;durP2;ratioP2;P2;SDS_P1;SDS_P2;PMS_P1;PMS_P2;Temp;Humidity;BMP_temperature;BMP_pressure;BME280_temperature;BME280_humidity;BME280_pressure;Samples;Min_cycle;Max_cycle;Signal;HPM_P1;HPM_P2
2023/11/29 00:01:52;;;;;;;2.20;1.10;;;;;;;-0.45;100.00;100001.88;5053877;28;20808;-71
2023/11/29 00:04:19;;;;;;;1.80;0.40;;;;;;;-0.47;100.00;100004.00;5053822;28;20545;-71
2023/11/29 00:06:47;;;;;;;3.03;1.17;;;;;;;-0.43;100.00;100005.94;5054190;28;20491;-71
2023/11/29 00:09:14;;;;;;;2.17;0.77;;;;;;;-0.38;100.00;100003.34;5053777;28;20481;-71
2023/11/29 00:11:41;;;;;;;2.23;0.97;;;;;;;-0.35;100.00;100007.38;5053776;28;20874;-71
2023/11/29 00:14:07;;;;;;;3.10;2.10;;;;;;;-0.35;100.00;100002.88;5053423;28;20981;-71
2023/11/29 00:16:35;;;;;;;1.90;0.50;;;;;;;-0.40;100.00;99996.63;5054067;28;20809;-71
2023/11/29 00:19:01;;;;;;;2.00;0.93;;;;;;;-0.41;100.00;99998.50;5053617;28;20446;-71
2023/11/29 00:21:28;;;;;;;1.70;0.40;;;;;;;-0.46;100.00;99985.13;5054332;28;20431;-71
2023/11/29 00:23:56;;;;;;;4.27;1.73;;;;;;;-0.48;100.00;99987.22;5053652;28;20516;-71
2023/11/29 00:26:24;;;;;;;3.50;1.57;;;;;;;-0.55;100.00;99982.06;5053703;28;20444;-71
2023/11/29 00:28:50;;;;;;;6.43;0.77;;;;;;;-0.56;100.00;99974.34;5053901;28;20541;-71
2023/11/29 00:31:17;;;;;;;2.33;0.77;;;;;;;-0.62;100.00;99985.94;5053825;28;20513;-70
2023/11/29 00:33:44;;;;;;;2.27;0.60;;;;;;;-0.62;100.00;99978.78;5053360;28;20497;-71
2023/11/29 00:36:10;;;;;;;1.70;0.30;;;;;;;-0.67;100.00;99973.34;5052690;28;21013;-71
2023/11/29 00:38:37;;;;;;;2.90;1.33;;;;;;;-0.66;100.00;99975.00;5053463;28;20484;-71
2023/11/29 00:41:05;;;;;;;1.70;0.30;;;;;;;-0.71;100.00;99976.75;5053398;28;20458;-71
2023/11/29 00:43:35;;;;;;;1.73;0.43;;;;;;;-0.73;100.00;99981.50;5053313;28;20458;-71
2023/11/29 00:46:01;;;;;;;1.90;0.57;;;;;;;-0.80;100.00;99973.66;5053698;28;20446;-71
2023/11/29 00:48:28;;;;;;;2.37;1.17;;;;;;;-0.81;100.00;99972.88;5054111;28;20809;-71
2023/11/29 00:50:54;;;;;;;1.70;0.37;;;;;;;-0.76;100.00;99972.16;5052958;28;20547;-70
2023/11/29 00:53:21;;;;;;;2.13;1.10;;;;;;;-0.77;100.00;99979.31;5053204;28;20500;-71
2023/11/29 00:55:48;;;;;;;1.80;0.50;;;;;;;-0.77;100.00;99974.00;5053441;28;20469;-71
2023/11/29 00:58:17;;;;;;;2.00;0.73;;;;;;;-0.77;100.00;99978.53;5053579;28;20474;-71
2023/11/29 01:00:43;;;;;;;1.73;0.40;;;;;;;-0.73;100.00;99978.84;5052893;28;20437;-70
2023/11/29 01:03:11;;;;;;;2.10;1.13;;;;;;;-0.78;100.00;99969.75;5053704;28;20438;-71
2023/11/29 01:05:38;;;;;;;1.90;0.50;;;;;;;-0.78;100.00;99974.25;5052906;28;20442;-71
2023/11/29 01:08:05;;;;;;;1.83;0.63;;;;;;;-0.87;100.00;99987.13;5053749;28;20784;-71
2023/11/29 01:10:31;;;;;;;2.93;2.40;;;;;;;-0.89;100.00;99981.25;5067562;22;20494;-68
2023/11/29 01:12:58;;;;;;;1.70;0.40;;;;;;;-0.87;100.00;99967.72;5053470;28;20541;-68
2023/11/29 01:15:26;;;;;;;2.20;0.80;;;;;;;-0.82;100.00;99965.16;5053599;28;20501;-68
2023/11/29 01:17:53;;;;;;;1.90;0.67;;;;;;;-0.83;100.00;99967.00;5053459;28;20466;-68
2023/11/29 01:20:20;;;;;;;2.20;0.90;;;;;;;-0.90;100.00;99968.19;5053271;28;20525;-69
2023/11/29 01:22:46;;;;;;;2.90;0.97;;;;;;;-0.97;100.00;99963.06;5053330;28;20477;-68
2023/11/29 01:25:13;;;;;;;1.80;0.50;;;;;;;-0.96;100.00;99962.00;5053280;28;20454;-68
2023/11/29 01:27:40;;;;;;;2.20;0.90;;;;;;;-0.98;100.00;99961.41;5053569;28;20448;-67
2023/11/29 01:30:08;;;;;;;1.73;0.40;;;;;;;-0.99;100.00;99964.31;5053248;28;20965;-67
2023/11/29 01:32:36;;;;;;;1.70;0.30;;;;;;;-1.02;100.00;99961.13;5053222;28;20446;-67
2023/11/29 01:35:03;;;;;;;1.80;0.40;;;;;;;-0.99;100.00;99959.00;5053450;28;20553;-67
2023/11/29 01:37:29;;;;;;;1.90;0.60;;;;;;;-0.98;100.00;99956.09;5053054;28;20446;-67
2023/11/29 01:39:56;;;;;;;2.00;0.93;;;;;;;-0.92;100.00;99949.03;5053816;28;20951;-67
2023/11/29 01:42:22;;;;;;;1.70;0.40;;;;;;;-0.96;100.00;99943.41;5053292;28;20525;-69
2023/11/29 01:44:49;;;;;;;1.70;0.40;;;;;;;-0.97;100.00;99941.78;5053572;28;20520;-67
2023/11/29 01:47:17;;;;;;;1.70;0.40;;;;;;;-1.00;100.00;99931.63;5055848;28;20853;-68
2023/11/29 01:49:45;;;;;;;1.80;0.40;;;;;;;-1.07;100.00;99936.28;5057047;28;20441;-67
2023/11/29 01:52:13;;;;;;;2.33;1.17;;;;;;;-1.12;100.00;99936.19;5056194;28;20564;-67
2023/11/29 01:54:40;;;;;;;2.43;1.13;;;;;;;-1.23;100.00;99937.09;5056419;28;20505;-67
2023/11/29 01:57:07;;;;;;;1.87;0.57;;;;;;;-1.23;100.00;99937.09;5056559;28;20528;-67
2023/11/29 01:59:34;;;;;;;2.20;0.70;;;;;;;-1.27;100.00;99932.25;5055990;28;20526;-67
2023/11/29 02:02:01;;;;;;;1.70;0.43;;;;;;;-1.29;100.00;99928.22;5056261;28;20449;-67
2023/11/29 02:04:28;;;;;;;1.80;0.50;;;;;;;-1.38;100.00;99919.81;5056231;28;20472;-67
2023/11/29 02:06:57;;;;;;;1.80;0.37;;;;;;;-1.37;100.00;99912.69;5056330;28;20473;-67
2023/11/29 02:09:23;;;;;;;1.70;0.30;;;;;;;-1.37;100.00;99907.38;5055881;28;20512;-68
2023/11/29 02:11:51;;;;;;;3.00;1.33;;;;;;;-1.33;100.00;99906.66;5056126;28;20466;-67
2023/11/29 02:14:17;;;;;;;2.00;0.70;;;;;;;-1.31;100.00;99909.88;5055964;28;20537;-67
2023/11/29 02:16:44;;;;;;;1.70;0.30;;;;;;;-1.34;100.00;99907.66;5056005;28;20811;-67
2023/11/29 02:19:11;;;;;;;1.70;0.30;;;;;;;-1.30;100.00;99908.00;5055935;28;20537;-67
2023/11/29 02:21:38;;;;;;;2.83;1.80;;;;;;;-1.34;100.00;99907.66;5056090;28;20442;-67
2023/11/29 02:24:12;;;;;;;1.80;0.50;;;;;;;-1.38;100.00;99903.88;5055569;28;20982;-67
2023/11/29 02:26:39;;;;;;;1.80;0.50;;;;;;;-1.39;100.00;99893.50;5056622;28;20484;-67
2023/11/29 02:29:06;;;;;;;1.80;0.60;;;;;;;-1.43;100.00;99885.22;5055877;28;20533;-67
2023/11/29 02:31:33;;;;;;;3.20;1.03;;;;;;;-1.45;100.00;99882.00;5055840;28;20482;-67
2023/11/29 02:34:01;;;;;;;1.70;0.30;;;;;;;-1.44;100.00;99877.50;5055616;28;20496;-68
2023/11/29 02:36:28;;;;;;;1.90;0.70;;;;;;;-1.43;100.00;99877.25;5055812;28;20529;-67
2023/11/29 02:38:54;;;;;;;1.70;0.30;;;;;;;-1.42;100.00;99876.19;5055558;28;20438;-67
2023/11/29 02:41:21;;;;;;;1.70;0.30;;;;;;;-1.42;100.00;99868.22;5055562;28;20440;-67
2023/11/29 02:43:51;;;;;;;1.70;0.50;;;;;;;-1.38;100.00;99861.38;5055792;28;20494;-67
2023/11/29 02:46:18;;;;;;;1.70;0.40;;;;;;;-1.37;100.00;99867.53;5055836;28;20902;-67
2023/11/29 02:48:45;;;;;;;3.93;2.90;;;;;;;-1.37;100.00;99868.34;5055541;28;20474;-67
2023/11/29 02:51:12;;;;;;;1.80;0.43;;;;;;;-1.38;100.00;99865.91;5055581;28;20481;-67
2023/11/29 02:53:38;;;;;;;1.90;0.60;;;;;;;-1.41;100.00;99864.53;5055334;28;20496;-67
2023/11/29 02:56:08;;;;;;;1.80;0.53;;;;;;;-1.43;100.00;99850.69;5055057;28;20923;-67
2023/11/29 02:58:35;;;;;;;2.27;0.87;;;;;;;-1.49;100.00;99841.03;5054108;28;20922;-67
2023/11/29 03:01:03;;;;;;;1.70;0.30;;;;;;;-1.50;100.00;99839.44;5055232;28;20521;-67
2023/11/29 03:03:30;;;;;;;1.80;0.40;;;;;;;-1.49;100.00;99840.22;5055225;28;20485;-67
2023/11/29 03:05:57;;;;;;;1.70;0.30;;;;;;;-1.47;100.00;99830.16;5055262;28;20868;-67
2023/11/29 03:08:23;;;;;;;2.40;0.83;;;;;;;-1.46;100.00;99829.94;5055332;28;20473;-67
2023/11/29 03:10:50;;;;;;;1.97;0.60;;;;;;;-1.50;100.00;99810.22;5054759;28;20481;-67
2023/11/29 03:13:17;;;;;;;1.80;0.60;;;;;;;-1.54;100.00;99814.41;5054590;28;20500;-67
2023/11/29 03:15:43;;;;;;;5.40;1.57;;;;;;;-1.54;100.00;99814.41;5054860;28;20862;-67
2023/11/29 03:18:11;;;;;;;2.10;0.80;;;;;;;-1.56;100.00;99804.00;5054611;28;20536;-67
2023/11/29 03:20:38;;;;;;;3.13;1.40;;;;;;;-1.56;100.00;99795.22;5054884;28;20441;-67
2023/11/29 03:23:04;;;;;;;1.97;0.67;;;;;;;-1.60;100.00;99786.13;5054519;28;20448;-67
2023/11/29 03:25:31;;;;;;;2.17;0.60;;;;;;;-1.57;100.00;99789.13;5055572;28;20660;-67
2023/11/29 03:27:58;;;;;;;1.70;0.30;;;;;;;-1.58;100.00;99771.59;5054701;28;20471;-67
2023/11/29 03:30:24;;;;;;;1.70;0.30;;;;;;;-1.53;100.00;99776.16;5054643;28;20449;-67
2023/11/29 03:32:51;;;;;;;1.80;0.60;;;;;;;-1.55;100.00;99771.13;5054779;28;20565;-67
2023/11/29 03:35:19;;;;;;;1.70;0.30;;;;;;;-1.55;100.00;99767.63;5054508;28;20501;-67
2023/11/29 03:37:46;;;;;;;1.70;0.30;;;;;;;-1.56;100.00;99758.84;5054998;28;20438;-67
2023/11/29 03:40:12;;;;;;;1.70;0.30;;;;;;;-1.54;100.00;99761.28;5054923;28;20451;-67
2023/11/29 03:42:39;;;;;;;3.50;1.37;;;;;;;-1.53;100.00;99753.06;5054454;28;20458;-67
2023/11/29 03:45:06;;;;;;;1.70;0.30;;;;;;;-1.50;100.00;99756.31;5054804;28;20465;-67
2023/11/29 03:47:33;;;;;;;1.90;0.70;;;;;;;-1.47;100.00;99746.00;5054421;28;20473;-68
2023/11/29 03:49:59;;;;;;;1.70;0.30;;;;;;;-1.50;100.00;99746.50;5054573;28;20469;-68
2023/11/29 03:52:27;;;;;;;1.80;0.50;;;;;;;-1.43;100.00;99738.34;5054238;28;20562;-67
2023/11/29 03:54:54;;;;;;;3.30;0.83;;;;;;;-1.40;100.00;99733.34;5054474;28;20532;-69
2023/11/29 03:57:21;;;;;;;1.70;0.30;;;;;;;-1.39;100.00;99731.50;5054618;28;20465;-70
2023/11/29 03:59:47;;;;;;;1.70;0.40;;;;;;;-1.41;100.00;99723.78;5053959;28;20942;-67
2023/11/29 04:02:14;;;;;;;1.80;0.50;;;;;;;-1.41;100.00;99710.50;5054337;28;20525;-67
2023/11/29 04:04:41;;;;;;;1.70;0.33;;;;;;;-1.42;100.00;99716.03;5053647;28;21028;-67
2023/11/29 04:07:07;;;;;;;1.70;0.30;;;;;;;-1.44;100.00;99713.63;5054414;28;20525;-67
2023/11/29 04:09:35;;;;;;;1.70;0.30;;;;;;;-1.40;99.79;99704.16;5053549;28;20556;-67
2023/11/29 04:12:02;;;;;;;2.20;0.87;;;;;;;-1.41;99.79;99694.56;5053466;28;21045;-67
2023/11/29 04:14:28;;;;;;;2.30;0.60;;;;;;;-1.39;99.96;99689.00;5053497;28;20556;-67
2023/11/29 04:16:55;;;;;;;1.70;0.30;;;;;;;-1.38;100.00;99685.31;5053570;28;20474;-67
2023/11/29 04:19:21;;;;;;;1.80;0.47;;;;;;;-1.36;100.00;99691.19;5054291;28;20504;-67
2023/11/29 04:21:49;;;;;;;1.70;0.37;;;;;;;-1.39;99.37;99684.50;5054046;28;20458;-67
2023/11/29 04:24:15;;;;;;;1.70;0.30;;;;;;;-1.36;99.31;99677.91;5053571;28;20490;-68
2023/11/29 04:26:43;;;;;;;1.70;0.40;;;;;;;-1.37;99.15;99679.75;5053771;28;20470;-68
2023/11/29 04:29:11;;;;;;;2.00;0.60;;;;;;;-1.33;99.79;99688.84;5053785;28;20489;-68
2023/11/29 04:31:39;;;;;;;2.10;0.90;;;;;;;-1.27;100.00;99692.38;5053368;28;20517;-68
2023/11/29 04:34:07;;;;;;;1.80;0.40;;;;;;;-1.18;99.86;99684.78;5053978;28;20462;-68
2023/11/29 04:36:34;;;;;;;1.70;0.40;;;;;;;-1.21;98.89;99686.06;5054079;28;20442;-68
2023/11/29 04:39:01;;;;;;;1.80;0.50;;;;;;;-1.25;98.91;99684.16;5053973;28;20529;-68
2023/11/29 04:41:27;;;;;;;1.70;0.40;;;;;;;-1.27;98.40;99682.53;5053600;28;20508;-68
2023/11/29 04:43:55;;;;;;;1.97;0.70;;;;;;;-1.23;99.14;99668.78;5053557;28;20539;-68
2023/11/29 04:46:22;;;;;;;1.70;0.37;;;;;;;-1.22;98.34;99671.19;5053659;28;20520;-68
2023/11/29 04:48:48;;;;;;;1.70;0.30;;;;;;;-1.29;97.99;99663.38;5053747;28;20438;-68
2023/11/29 04:51:15;;;;;;;1.70;0.30;;;;;;;-1.24;98.39;99669.81;5053553;28;20572;-68
2023/11/29 04:53:42;;;;;;;1.70;0.30;;;;;;;-1.28;98.56;99658.91;5053109;28;21043;-68
2023/11/29 04:56:09;;;;;;;3.40;0.70;;;;;;;-1.29;97.84;99663.38;5053669;28;20442;-68
2023/11/29 04:58:39;;;;;;;2.53;0.70;;;;;;;-1.28;98.00;99667.66;5053290;28;20785;-68
2023/11/29 05:01:08;;;;;;;1.70;0.40;;;;;;;-1.29;97.80;99663.38;5053832;28;20498;-68
2023/11/29 05:03:36;;;;;;;2.43;0.97;;;;;;;-1.29;98.42;99662.56;5053285;28;20467;-68
2023/11/29 05:06:04;;;;;;;10.80;1.33;;;;;;;-1.27;98.67;99660.50;5053713;28;20500;-68
2023/11/29 05:08:32;;;;;;;2.67;0.97;;;;;;;-1.25;98.56;99669.00;5053476;28;20441;-68
2023/11/29 05:11:00;;;;;;;2.40;0.93;;;;;;;-1.27;97.30;99671.13;5053562;28;20871;-68
2023/11/29 05:13:27;;;;;;;1.80;0.50;;;;;;;-1.19;98.62;99669.91;5053930;28;20529;-68
2023/11/29 05:15:53;;;;;;;1.80;0.57;;;;;;;-1.17;98.72;99667.78;5053714;28;20521;-68
2023/11/29 05:18:21;;;;;;;1.70;0.40;;;;;;;-1.15;97.77;99666.50;5053531;28;20477;-68
2023/11/29 05:20:48;;;;;;;2.00;0.73;;;;;;;-1.12;98.26;99657.22;5054422;28;20942;-68
2023/11/29 05:23:15;;;;;;;1.70;0.30;;;;;;;-1.09;97.74;99662.84;5057392;28;20477;-68
2023/11/29 05:25:42;;;;;;;1.80;0.50;;;;;;;-1.05;98.21;99660.50;5056750;28;20446;-68
2023/11/29 05:28:09;;;;;;;1.80;0.40;;;;;;;-1.04;97.95;99662.09;5057533;28;20514;-68
2023/11/29 05:30:36;;;;;;;1.73;0.40;;;;;;;-1.08;97.38;99658.34;5057328;28;20470;-68
2023/11/29 05:33:03;;;;;;;1.70;0.40;;;;;;;-1.12;99.35;99663.34;5057292;28;20517;-68
2023/11/29 05:35:31;;;;;;;1.70;0.40;;;;;;;-1.18;99.95;99656.38;5056608;28;20817;-68
2023/11/29 05:37:58;;;;;;;1.70;0.30;;;;;;;-1.28;100.00;99643.75;5057238;28;20528;-67
2023/11/29 05:40:25;;;;;;;2.40;1.33;;;;;;;-1.29;100.00;99644.78;5056569;28;20890;-67
2023/11/29 05:42:52;;;;;;;2.10;0.73;;;;;;;-1.27;100.00;99649.88;5056914;28;20484;-67
2023/11/29 05:45:19;;;;;;;2.00;0.80;;;;;;;-1.26;100.00;99656.78;5056820;28;20473;-67
2023/11/29 05:47:46;;;;;;;1.70;0.30;;;;;;;-1.29;100.00;99654.59;5056743;28;20450;-67
2023/11/29 05:50:13;;;;;;;2.60;0.80;;;;;;;-1.27;100.00;99642.69;5056635;28;20801;-67
2023/11/29 05:52:41;;;;;;;1.80;0.60;;;;;;;-1.22;100.00;99651.78;5056664;28;20482;-67
2023/11/29 05:55:09;;;;;;;1.90;0.80;;;;;;;-1.16;100.00;99648.94;5056634;28;20533;-67
2023/11/29 05:57:35;;;;;;;1.70;0.30;;;;;;;-1.10;100.00;99652.47;5057018;28;20450;-67
2023/11/29 06:00:08;;;;;;;1.70;0.40;;;;;;;-1.08;100.00;99647.72;5057094;28;20450;-67
2023/11/29 06:02:35;;;;;;;1.70;0.30;;;;;;;-1.10;100.00;99644.50;5056431;28;20423;-67
2023/11/29 06:05:04;;;;;;;2.10;1.03;;;;;;;-1.08;100.00;99647.72;5056420;28;20494;-67
2023/11/29 06:07:31;;;;;;;3.30;1.27;;;;;;;-1.08;100.00;99637.88;5056116;28;20834;-67
2023/11/29 06:10:00;;;;;;;1.80;0.60;;;;;;;-1.09;100.00;99638.13;5056337;28;20477;-67
2023/11/29 06:12:27;;;;;;;1.80;0.60;;;;;;;-1.10;99.97;99623.25;5056032;28;20564;-67
2023/11/29 06:14:53;;;;;;;2.00;0.80;;;;;;;-1.04;100.00;99638.19;5056465;28;20857;-67
2023/11/29 06:17:20;;;;;;;4.33;1.80;;;;;;;-1.04;99.55;99643.50;5055783;28;20534;-67
2023/11/29 06:19:47;;;;;;;2.10;0.60;;;;;;;-1.08;99.29;99642.38;5056221;28;20476;-67
2023/11/29 06:22:14;;;;;;;3.60;1.27;;;;;;;-1.03;100.00;99642.44;5056157;28;20438;-67
2023/11/29 06:24:41;;;;;;;1.70;0.40;;;;;;;-0.99;99.68;99640.09;5055693;28;20458;-67
2023/11/29 06:27:10;;;;;;;3.40;1.20;;;;;;;-0.98;99.33;99631.06;5055707;28;20529;-67
2023/11/29 06:29:36;;;;;;;2.20;0.87;;;;;;;-0.99;98.98;99632.94;5055920;28;20530;-67
2023/11/29 06:32:03;;;;;;;2.00;0.73;;;;;;;-1.04;98.68;99635.53;5055772;28;20503;-67
2023/11/29 06:34:30;;;;;;;2.57;0.80;;;;;;;-1.05;98.64;99632.06;5070252;28;20458;-67
2023/11/29 06:36:56;;;;;;;1.70;0.40;;;;;;;-1.06;99.51;99637.66;5072160;28;20469;-67
2023/11/29 06:39:23;;;;;;;3.50;0.97;;;;;;;-1.01;100.00;99632.38;5073700;28;20410;-67
2023/11/29 06:41:50;;;;;;;1.80;0.60;;;;;;;-0.99;99.97;99630.28;5073498;28;20466;-67
2023/11/29 06:44:18;;;;;;;1.80;0.50;;;;;;;-0.95;100.00;99631.38;5073545;28;20887;-70
2023/11/29 06:46:44;;;;;;;2.60;0.90;;;;;;;-0.90;100.00;99634.09;5076544;28;20518;-69
2023/11/29 06:49:11;;;;;;;1.70;0.40;;;;;;;-0.93;100.00;99634.63;5062759;28;20482;-67
2023/11/29 06:51:38;;;;;;;1.70;0.40;;;;;;;-0.97;100.00;99627.34;5055683;28;20434;-67
2023/11/29 06:54:05;;;;;;;1.70;0.40;;;;;;;-0.97;100.00;99638.81;5055203;28;20559;-66
2023/11/29 06:56:31;;;;;;;1.70;0.30;;;;;;;-0.96;100.00;99637.75;5055525;28;20442;-67
2023/11/29 06:58:58;;;;;;;2.10;1.27;;;;;;;-0.96;100.00;99632.44;5055368;28;20525;-66
2023/11/29 07:01:26;;;;;;;1.73;0.40;;;;;;;-0.96;100.00;99624.47;5055575;28;20526;-66
2023/11/29 07:03:52;;;;;;;1.70;0.40;;;;;;;-0.93;100.00;99623.97;5055493;28;20493;-68
2023/11/29 07:06:23;;;;;;;2.53;1.43;;;;;;;-0.94;100.00;99633.00;5055135;28;21036;-67
2023/11/29 07:11:23;;;;;;;2.13;0.90;;;;;;;-0.95;100.00;99625.28;5013373;28;20472;-65
2023/11/29 07:13:49;;;;;;;1.80;0.50;;;;;;;-0.97;100.00;99628.19;5014699;28;20583;-65
2023/11/29 07:16:16;;;;;;;1.90;0.60;;;;;;;-0.98;100.00;99626.56;5015521;28;20439;-65
2023/11/29 07:18:44;;;;;;;3.60;0.80;;;;;;;-1.00;100.00;99628.69;5015056;28;20535;-66
2023/11/29 07:21:11;;;;;;;1.77;0.50;;;;;;;-1.00;100.00;99622.56;5015630;28;20531;-65
2023/11/29 07:23:37;;;;;;;2.93;1.27;;;;;;;-0.99;100.00;99617.00;5015181;28;20460;-65
2023/11/29 07:26:04;;;;;;;1.90;0.60;;;;;;;-0.99;100.00;99624.97;5014929;28;20436;-65
2023/11/29 07:28:31;;;;;;;1.70;0.37;;;;;;;-1.06;100.00;99625.16;5015351;28;20439;-66
2023/11/29 07:30:57;;;;;;;2.03;1.13;;;;;;;-1.02;100.00;99622.78;5014924;28;20539;-64
2023/11/29 07:33:24;;;;;;;1.70;0.30;;;;;;;-1.02;100.00;99620.97;5014481;28;21038;-65
2023/11/29 07:35:52;;;;;;;1.90;0.77;;;;;;;-1.00;100.00;99620.69;5014795;28;20531;-65
2023/11/29 07:38:18;;;;;;;2.73;1.10;;;;;;;-0.97;100.00;99628.19;5015145;28;20814;-65
2023/11/29 07:40:45;;;;;;;1.80;0.50;;;;;;;-0.93;100.00;99628.47;5014864;28;20476;-65
2023/11/29 07:43:12;;;;;;;2.73;1.33;;;;;;;-0.87;100.00;99635.47;5014371;28;20436;-66
2023/11/29 07:45:38;;;;;;;1.80;0.40;;;;;;;-0.82;100.00;99631.00;5015205;28;20508;-67
2023/11/29 07:48:06;;;;;;;1.70;0.40;;;;;;;-0.81;100.00;99637.91;5014747;28;20523;-66
2023/11/29 07:50:32;;;;;;;2.20;1.33;;;;;;;-0.80;100.00;99631.56;5014423;28;20479;-67
2023/11/29 07:53:00;;;;;;;2.27;0.83;;;;;;;-0.74;100.00;99632.41;5014366;28;21007;-66
2023/11/29 07:55:27;;;;;;;1.80;0.50;;;;;;;-0.69;100.00;99640.44;5014271;28;21107;-66
2023/11/29 07:57:54;;;;;;;1.80;0.40;;;;;;;-0.66;100.00;99634.63;5014576;28;20858;-66
2023/11/29 08:00:21;;;;;;;1.97;0.83;;;;;;;-0.68;100.00;99627.94;5014805;28;20858;-66
2023/11/29 08:02:48;;;;;;;1.70;0.30;;;;;;;-0.66;100.00;99628.53;5014788;28;20860;-66
2023/11/29 08:05:15;;;;;;;1.77;0.50;;;;;;;-0.62;100.00;99634.91;5014877;28;20455;-66
2023/11/29 08:07:41;;;;;;;1.70;0.40;;;;;;;-0.58;100.00;99625.38;5014451;28;20471;-66
2023/11/29 08:10:10;;;;;;;4.03;1.07;;;;;;;-0.57;100.00;99637.66;5014403;28;20452;-66
2023/11/29 08:12:37;;;;;;;2.30;0.87;;;;;;;-0.56;100.00;99625.94;5014674;28;20480;-66
2023/11/29 08:15:04;;;;;;;2.20;1.17;;;;;;;-0.52;100.00;99629.72;5014247;28;20894;-66
2023/11/29 08:17:32;;;;;;;3.03;2.30;;;;;;;-0.47;100.00;99621.78;5014176;28;20436;-66
2023/11/29 08:19:59;;;;;;;2.47;1.40;;;;;;;-0.50;100.00;99619.63;5013857;28;20930;-66
2023/11/29 08:22:26;;;;;;;3.77;0.70;;;;;;;-0.55;100.00;99619.56;5013777;28;20444;-66
2023/11/29 08:24:52;;;;;;;1.70;0.40;;;;;;;-0.57;100.00;99622.50;5013839;28;20456;-66
2023/11/29 08:27:21;;;;;;;3.30;1.63;;;;;;;-0.54;100.00;99616.66;5013772;28;20523;-66
2023/11/29 08:29:48;;;;;;;1.70;0.30;;;;;;;-0.45;100.00;99619.66;5013819;28;20517;-66
2023/11/29 08:32:15;;;;;;;1.73;0.57;;;;;;;-0.36;100.00;99609.38;5013783;28;20956;-66
2023/11/29 08:34:42;;;;;;;1.87;0.57;;;;;;;-0.35;100.00;99619.75;5014482;28;20547;-66
2023/11/29 08:37:08;;;;;;;2.10;0.77;;;;;;;-0.32;100.00;99618.44;5013648;28;20944;-67
2023/11/29 08:39:35;;;;;;;1.90;0.73;;;;;;;-0.40;100.00;99613.56;5013625;28;20446;-67
2023/11/29 08:42:02;;;;;;;2.80;1.00;;;;;;;-0.48;100.00;99612.19;5014162;28;20447;-65
2023/11/29 08:44:31;;;;;;;2.63;2.10;;;;;;;-0.46;100.00;99609.28;5014251;28;20467;-67
2023/11/29 08:46:57;;;;;;;2.10;0.90;;;;;;;-0.47;100.00;99605.03;5013948;28;20444;-69
2023/11/29 08:49:25;;;;;;;2.17;0.97;;;;;;;-0.52;100.00;99603.13;5013540;28;20976;-67
2023/11/29 08:51:51;;;;;;;2.40;1.23;;;;;;;-0.48;100.00;99604.22;5013627;28;20531;-66
2023/11/29 08:54:18;;;;;;;2.57;1.70;;;;;;;-0.51;100.00;99599.41;5014044;28;21055;-66
2023/11/29 08:56:45;;;;;;;2.10;0.83;;;;;;;-0.44;100.00;99594.69;5017007;28;20452;-66
2023/11/29 08:59:11;;;;;;;2.83;1.50;;;;;;;-0.35;100.00;99598.47;5017796;28;20973;-66
2023/11/29 09:01:40;;;;;;;2.10;0.53;;;;;;;-0.31;100.00;99602.25;5017689;28;20809;-66
2023/11/29 09:04:07;;;;;;;1.70;0.37;;;;;;;-0.30;100.00;99600.38;5017383;28;20461;-66
2023/11/29 09:06:33;;;;;;;2.87;1.17;;;;;;;-0.21;100.00;99595.41;5017853;28;20444;-66
2023/11/29 09:09:01;;;;;;;1.70;0.40;;;;;;;-0.17;100.00;99596.50;5017366;28;20482;-66
2023/11/29 09:11:27;;;;;;;2.27;1.33;;;;;;;-0.21;100.00;99592.75;5017684;28;20478;-65
2023/11/29 09:13:55;;;;;;;2.00;0.70;;;;;;;-0.26;100.00;99593.50;5017246;28;21000;-66
2023/11/29 09:16:21;;;;;;;1.90;0.60;;;;;;;-0.30;100.00;99595.06;5017544;28;20887;-66
2023/11/29 09:18:49;;;;;;;1.80;0.50;;;;;;;-0.36;100.00;99583.56;5017670;28;20454;-66
2023/11/29 09:21:16;;;;;;;1.70;0.30;;;;;;;-0.36;100.00;99590.75;5017463;28;20494;-66
2023/11/29 09:23:43;;;;;;;1.90;0.73;;;;;;;-0.33;100.00;99579.59;5017360;28;20969;-66
2023/11/29 09:26:12;;;;;;;3.87;1.00;;;;;;;-0.31;100.00;99578.31;5017606;28;20487;-66
2023/11/29 09:28:38;;;;;;;2.50;0.97;;;;;;;-0.22;100.00;99585.78;5017185;28;20506;-66
2023/11/29 09:31:05;;;;;;;1.80;0.40;;;;;;;-0.17;100.00;99583.19;5017401;28;20439;-66
2023/11/29 09:33:32;;;;;;;1.83;0.60;;;;;;;-0.14;100.00;99585.31;5017229;28;21007;-66
2023/11/29 09:36:00;;;;;;;2.00;0.63;;;;;;;-0.14;100.00;99578.13;5016684;28;20444;-66
2023/11/29 09:38:27;;;;;;;2.47;0.67;;;;;;;-0.15;100.00;99576.53;5016796;28;20475;-66
2023/11/29 09:40:54;;;;;;;3.20;2.03;;;;;;;-0.15;100.00;99576.53;5017159;28;20519;-66
2023/11/29 09:43:21;;;;;;;1.90;0.67;;;;;;;-0.20;100.00;99578.38;5016516;28;20440;-66
2023/11/29 09:45:48;;;;;;;1.70;0.30;;;;;;;-0.24;100.00;99577.28;5016921;28;20443;-66
2023/11/29 09:48:14;;;;;;;1.70;0.40;;;;;;;-0.21;100.00;99571.44;5017079;28;20490;-66
2023/11/29 09:50:41;;;;;;;2.27;1.00;;;;;;;-0.23;100.00;99574.34;5017101;28;20440;-66
2023/11/29 09:53:10;;;;;;;2.30;1.07;;;;;;;-0.23;100.00;99574.34;5016902;28;20575;-66
2023/11/29 09:55:36;;;;;;;2.57;1.20;;;;;;;-0.24;100.00;99577.28;5016508;28;20613;-66
2023/11/29 09:58:04;;;;;;;2.27;1.03;;;;;;;-0.24;100.00;99575.41;5016443;28;20849;-66
2023/11/29 10:00:32;;;;;;;2.20;0.90;;;;;;;-0.23;100.00;99569.03;5016624;28;20510;-66
2023/11/29 10:03:11;;;;;;;3.80;1.80;;;;;;;-0.20;100.00;99565.06;5016772;28;20809;-66
2023/11/29 10:05:38;;;;;;;1.70;0.40;;;;;;;-0.18;100.00;99561.06;5016498;28;20858;-66
2023/11/29 10:08:05;;;;;;;1.90;0.70;;;;;;;-0.24;100.00;99554.13;5016563;28;20445;-66
2023/11/29 10:10:36;;;;;;;2.63;1.33;;;;;;;-0.23;100.00;99562.91;5016391;28;20464;-66
2023/11/29 10:13:03;;;;;;;2.67;1.10;;;;;;;-0.29;100.00;99560.22;5016639;28;20435;-66
2023/11/29 10:15:30;;;;;;;2.23;1.10;;;;;;;-0.29;100.00;99565.53;5016460;28;20464;-66
2023/11/29 10:17:57;;;;;;;2.77;1.10;;;;;;;-0.33;100.00;99555.66;5016821;28;20444;-66
2023/11/29 10:20:25;;;;;;;2.43;0.90;;;;;;;-0.39;100.00;99551.38;5016399;28;20467;-66
2023/11/29 10:22:52;;;;;;;2.00;0.70;;;;;;;-0.37;100.00;99541.25;5016587;28;20810;-66
2023/11/29 10:25:20;;;;;;;2.10;0.80;;;;;;;-0.43;100.00;99543.09;5016270;28;20499;-66
2023/11/29 10:27:49;;;;;;;2.10;0.77;;;;;;;-0.42;100.00;99536.69;5016367;28;20459;-66
2023/11/29 10:30:17;;;;;;;2.03;0.70;;;;;;;-0.37;100.00;99531.41;5016236;28;20494;-66
2023/11/29 10:32:44;;;;;;;2.17;0.63;;;;;;;-0.23;100.00;99530.97;5016258;28;20444;-66
2023/11/29 10:35:13;;;;;;;2.00;0.60;;;;;;;-0.03;100.00;99531.91;5015670;28;20487;-66
2023/11/29 10:37:43;;;;;;;2.73;1.60;;;;;;;0.15;100.00;99532.56;5015805;28;20899;-66
2023/11/29 10:40:14;;;;;;;6.73;1.93;;;;;;;0.30;100.00;99527.28;5017021;28;20490;-66
2023/11/29 10:42:43;;;;;;;16.47;4.73;;;;;;;0.43;100.00;99512.69;5015913;28;20420;-66
2023/11/29 10:45:17;;;;;;;6.90;1.67;;;;;;;0.48;100.00;99513.50;5015927;28;20456;-66
2023/11/29 10:47:52;;;;;;;3.50;1.97;;;;;;;0.57;100.00;99508.47;5015843;28;20464;-66
2023/11/29 10:50:22;;;;;;;1.90;0.60;;;;;;;0.60;100.00;99507.97;5016004;28;20428;-66
2023/11/29 10:52:49;;;;;;;2.50;1.23;;;;;;;0.59;100.00;99500.25;5016107;28;20851;-66
2023/11/29 10:55:16;;;;;;;6.50;1.40;;;;;;;0.63;100.00;99512.00;5015283;28;20572;-66
2023/11/29 10:57:53;;;;;;;2.77;1.00;;;;;;;0.61;100.00;99509.56;5015294;28;20443;-66
2023/11/29 11:00:25;;;;;;;3.23;1.70;;;;;;;0.57;100.00;99518.34;5015551;28;20454;-66
2023/11/29 11:02:52;;;;;;;3.80;2.20;;;;;;;0.51;100.00;99504.22;5015457;28;20524;-66
2023/11/29 11:05:23;;;;;;;3.80;1.43;;;;;;;0.51;100.00;99514.88;5015531;28;20492;-66
2023/11/29 11:07:50;;;;;;;4.20;1.47;;;;;;;0.55;100.00;99505.28;5015815;28;20504;-66
2023/11/29 11:10:23;;;;;;;2.03;0.80;;;;;;;0.56;100.00;99504.22;5014892;28;20498;-66
2023/11/29 11:12:51;;;;;;;3.10;1.27;;;;;;;0.53;100.00;99499.41;5015733;28;20900;-66
2023/11/29 11:15:24;;;;;;;1.70;0.40;;;;;;;0.54;100.00;99495.72;5015409;28;20494;-66
2023/11/29 11:18:24;;;;;;;2.53;1.10;;;;;;;0.55;100.00;99494.63;5015053;28;20424;-66
2023/11/29 11:20:52;;;;;;;1.80;0.50;;;;;;;0.56;100.00;99492.78;5015113;28;20474;-66
2023/11/29 11:23:21;;;;;;;1.80;0.40;;;;;;;0.50;100.00;99489.28;5015085;28;20542;-66
2023/11/29 11:25:50;;;;;;;1.70;0.30;;;;;;;0.40;100.00;99487.41;5014893;28;20844;-66
2023/11/29 11:28:32;;;;;;;3.80;0.90;;;;;;;0.43;100.00;99483.41;5015147;28;20810;-66
2023/11/29 11:31:07;;;;;;;2.47;0.70;;;;;;;0.47;100.00;99481.81;5011908;28;20488;-66